createdAt,value
2023-04-21T00:01:42.263Z,1.00
2023-04-21T00:04:13.574Z,0.95
2023-04-21T00:06:44.491Z,0.90
2023-04-21T00:09:12.460Z,1.00
2023-04-21T00:11:40.613Z,0.90
2023-04-21T00:14:08.725Z,0.93
2023-04-21T00:16:36.813Z,1.10
2023-04-21T00:19:07.016Z,1.05
2023-04-21T00:21:35.776Z,0.82
2023-04-21T00:24:05.819Z,1.00
2023-04-21T00:26:33.822Z,0.80
2023-04-21T00:29:01.737Z,0.80
2023-04-21T00:31:29.717Z,0.93
2023-04-21T00:33:57.708Z,0.90
2023-04-21T00:36:28.214Z,0.90
2023-04-21T00:38:56.216Z,1.13
2023-04-21T00:41:25.529Z,0.85
2023-04-21T00:44:02.853Z,0.77
2023-04-21T00:46:30.912Z,0.90
2023-04-21T00:48:59.086Z,1.00
2023-04-21T00:51:27.734Z,0.80
2023-04-21T00:53:55.724Z,0.80
2023-04-21T00:56:25.073Z,0.80
2023-04-21T00:58:53.042Z,1.00
2023-04-21T01:01:21.097Z,0.90
2023-04-21T01:03:50.508Z,1.10
2023-04-21T01:06:18.824Z,0.80
2023-04-21T01:08:46.981Z,0.80
2023-04-21T01:11:14.962Z,0.90
2023-04-21T01:13:44.445Z,0.88
2023-04-21T01:16:16.992Z,1.00
2023-04-21T01:18:45.058Z,1.00
2023-04-21T01:21:13.182Z,0.82
2023-04-21T01:23:42.784Z,0.82
2023-04-21T01:26:10.949Z,0.90
2023-04-21T01:28:39.032Z,0.90
2023-04-21T01:31:07.015Z,0.70
2023-04-21T01:33:35.058Z,0.88
2023-04-21T01:36:03.039Z,0.77
2023-04-21T01:38:31.159Z,0.70
2023-04-21T01:41:00.548Z,0.60
2023-04-21T01:43:28.594Z,0.80
2023-04-21T01:45:56.607Z,0.77
2023-04-21T01:48:24.538Z,0.80
2023-04-21T01:50:52.566Z,0.70
2023-04-21T01:53:20.736Z,1.00
2023-04-21T01:55:48.737Z,0.80
2023-04-21T01:58:18.039Z,0.77
2023-04-21T02:00:46.065Z,0.70
2023-04-21T02:03:14.216Z,0.80
2023-04-21T02:05:42.340Z,0.60
2023-04-21T02:08:10.320Z,0.60
2023-04-21T02:10:38.266Z,0.65
2023-04-21T02:13:06.220Z,0.70
2023-04-21T02:15:35.714Z,0.70
2023-04-21T02:18:03.718Z,0.70
2023-04-21T02:20:31.721Z,0.63
2023-04-21T02:22:59.713Z,0.90
2023-04-21T02:25:28.233Z,0.63
2023-04-21T02:27:56.230Z,0.73
2023-04-21T02:30:24.200Z,0.70
2023-04-21T02:32:53.631Z,0.63
2023-04-21T02:35:21.861Z,0.68
2023-04-21T02:37:49.866Z,0.77
2023-04-21T02:40:17.894Z,0.60
2023-04-21T02:42:45.808Z,0.70
2023-04-21T02:45:13.741Z,0.70
2023-04-21T02:47:41.813Z,0.65
2023-04-21T02:50:12.187Z,0.70
2023-04-21T02:52:40.182Z,0.70
2023-04-21T02:55:08.922Z,0.82
2023-04-21T02:57:36.920Z,0.57
2023-04-21T03:00:07.485Z,0.65
2023-04-21T03:02:36.267Z,0.65
2023-04-21T03:05:04.489Z,0.70
2023-04-21T03:07:33.908Z,0.60
2023-04-21T03:10:01.935Z,0.60
2023-04-21T03:12:29.963Z,0.70
2023-04-21T03:14:58.006Z,0.75
2023-04-21T03:17:26.190Z,0.70
2023-04-21T03:19:54.286Z,0.60
2023-04-21T03:22:22.303Z,0.68
2023-04-21T03:24:51.737Z,0.70
2023-04-21T03:27:19.799Z,0.63
2023-04-21T03:29:47.873Z,0.60
2023-04-21T03:32:15.989Z,0.80
2023-04-21T03:34:44.006Z,0.80
2023-04-21T03:37:11.906Z,0.70
2023-04-21T03:39:39.967Z,0.60
2023-04-21T03:42:09.351Z,0.80
2023-04-21T03:44:37.380Z,0.50
2023-04-21T03:47:05.516Z,0.52
2023-04-21T03:49:35.309Z,0.65
2023-04-21T03:52:03.365Z,0.57
2023-04-21T03:54:31.490Z,0.50
2023-04-21T03:56:59.504Z,0.70
2023-04-21T03:59:28.946Z,0.75
2023-04-21T04:01:57.075Z,0.75
2023-04-21T04:04:25.362Z,0.70
2023-04-21T04:06:53.476Z,0.80
2023-04-21T04:09:21.661Z,0.63
2023-04-21T04:11:49.748Z,0.50
2023-04-21T04:14:17.811Z,0.50
2023-04-21T04:16:47.119Z,0.60
2023-04-21T04:19:16.280Z,0.70
2023-04-21T04:21:44.264Z,0.70
2023-04-21T04:24:14.175Z,0.50
2023-04-21T04:26:42.842Z,0.60
2023-04-21T04:29:11.612Z,0.60
2023-04-21T04:31:39.703Z,0.60
2023-04-21T04:34:09.787Z,0.60
2023-04-21T04:36:37.752Z,0.50
2023-04-21T04:39:07.222Z,0.60
2023-04-21T04:41:36.500Z,0.68
2023-04-21T04:44:05.128Z,0.60
2023-04-21T04:46:33.172Z,0.47
2023-04-21T04:49:01.735Z,0.70
2023-04-21T04:51:32.529Z,0.75
2023-04-21T04:54:00.481Z,0.60
2023-04-21T04:56:28.638Z,0.60
2023-04-21T04:58:56.849Z,0.60
2023-04-21T05:01:30.327Z,0.70
2023-04-21T05:03:58.656Z,0.50
2023-04-21T05:06:28.577Z,0.50
2023-04-21T05:08:57.976Z,0.70
2023-04-21T05:11:26.018Z,0.80
2023-04-21T05:13:54.156Z,0.70
2023-04-21T05:16:22.243Z,0.60
2023-04-21T05:18:51.175Z,0.57
2023-04-21T05:21:25.064Z,0.60
2023-04-21T05:23:53.008Z,0.63
2023-04-21T05:26:22.327Z,0.60
2023-04-21T05:28:50.350Z,0.60
2023-04-21T05:31:18.364Z,0.70
2023-04-21T05:33:46.356Z,0.60
2023-04-21T05:36:14.376Z,0.60
2023-04-21T05:38:42.345Z,0.70
2023-04-21T05:41:10.253Z,0.70
2023-04-21T05:43:39.701Z,0.57
2023-04-21T05:46:10.360Z,0.70
2023-04-21T05:48:38.631Z,0.60
2023-04-21T05:51:10.495Z,0.80
2023-04-21T05:53:38.761Z,0.60
2023-04-21T05:56:08.163Z,0.70
2023-04-21T05:58:36.227Z,0.68
2023-04-21T06:01:06.394Z,0.70
2023-04-21T06:03:34.742Z,0.63
2023-04-21T06:06:03.720Z,0.60
2023-04-21T06:08:31.810Z,0.75
2023-04-21T06:10:59.813Z,0.65
2023-04-21T06:13:27.869Z,0.80
2023-04-21T06:15:56.055Z,0.80
2023-04-21T06:18:25.577Z,0.80
2023-04-21T06:20:53.724Z,0.80
2023-04-21T06:23:21.695Z,0.80
2023-04-21T06:25:49.894Z,0.80
2023-04-21T06:28:17.969Z,0.80
2023-04-21T06:30:46.034Z,0.70
2023-04-21T06:33:13.976Z,0.90
2023-04-21T06:35:43.613Z,1.02
2023-04-21T06:38:11.552Z,0.80
2023-04-21T06:40:39.473Z,0.60
2023-04-21T06:43:07.590Z,0.77
2023-04-21T06:45:35.594Z,0.90
2023-04-21T06:48:03.675Z,0.85
2023-04-21T06:50:31.597Z,0.90
2023-04-21T06:53:01.057Z,0.70
2023-04-21T06:55:29.167Z,0.90
2023-04-21T06:57:57.116Z,0.70
2023-04-21T07:00:25.212Z,0.70
2023-04-21T07:02:59.309Z,0.70
2023-04-21T07:05:27.470Z,0.80
2023-04-21T07:07:59.633Z,0.95
2023-04-21T07:10:29.400Z,0.70
2023-04-21T07:12:57.345Z,0.57
2023-04-21T07:15:25.378Z,0.60
2023-04-21T07:18:05.425Z,0.65
2023-04-21T07:20:33.518Z,0.60
2023-04-21T07:23:01.578Z,0.80
2023-04-21T07:25:31.151Z,0.60
2023-04-21T07:27:59.102Z,0.80
2023-04-21T07:30:27.174Z,0.80
2023-04-21T07:32:55.170Z,0.70
2023-04-21T07:35:23.296Z,0.60
2023-04-21T07:37:51.284Z,0.70
2023-04-21T07:40:19.188Z,0.77
2023-04-21T07:42:48.590Z,0.70
2023-04-21T07:45:16.525Z,0.70
2023-04-21T07:47:44.595Z,0.75
2023-04-21T07:50:12.756Z,0.80
2023-04-21T07:52:41.355Z,0.50
2023-04-21T07:55:09.700Z,0.73
2023-04-21T07:57:38.659Z,0.60
2023-04-21T08:00:09.536Z,0.70
2023-04-21T08:02:37.960Z,0.70
2023-04-21T08:05:06.491Z,0.77
2023-04-21T08:07:34.593Z,0.60
2023-04-21T08:10:02.881Z,0.60
2023-04-21T08:12:30.777Z,0.80
2023-04-21T08:14:58.877Z,0.63
2023-04-21T08:17:28.363Z,0.77
2023-04-21T08:19:57.970Z,0.60
2023-04-21T08:22:27.553Z,0.57
2023-04-21T08:24:55.553Z,0.70
2023-04-21T08:27:23.614Z,0.82
2023-04-21T08:29:51.807Z,0.90
2023-04-21T08:32:23.660Z,0.80
2023-04-21T08:34:53.324Z,0.80
2023-04-21T08:37:21.530Z,0.70
2023-04-21T08:39:50.914Z,0.80
2023-04-21T08:42:18.995Z,0.70
2023-04-21T08:44:47.220Z,0.75
2023-04-21T08:47:15.814Z,0.70
2023-04-21T08:49:45.331Z,0.70
2023-04-21T08:52:15.062Z,0.60
2023-04-21T08:54:43.150Z,0.70
2023-04-21T08:57:15.635Z,0.75
2023-04-21T08:59:44.125Z,0.90
2023-04-21T09:02:12.733Z,0.80
2023-04-21T09:04:41.574Z,0.80
2023-04-21T09:07:10.310Z,0.70
2023-04-21T09:09:55.236Z,0.77
2023-04-21T09:14:51.390Z,1.30
2023-04-21T09:17:19.775Z,1.20
2023-04-21T09:19:47.943Z,1.60
2023-04-21T09:22:16.710Z,1.58
2023-04-21T09:24:48.149Z,1.77
2023-04-21T09:27:18.241Z,1.50
2023-04-21T09:29:49.537Z,1.73
2023-04-21T09:32:20.555Z,1.50
2023-04-21T09:34:48.633Z,1.70
2023-04-21T09:37:18.768Z,1.70
2023-04-21T09:40:03.542Z,1.60
2023-04-21T09:42:37.859Z,1.77
2023-04-21T09:45:32.429Z,1.60
2023-04-21T09:47:58.807Z,1.67
2023-04-21T09:50:54.822Z,1.50
2023-04-21T09:53:16.574Z,1.50
2023-04-21T09:55:44.633Z,1.50
2023-04-21T09:58:15.521Z,1.30
2023-04-21T10:00:43.480Z,1.60
2023-04-21T10:03:12.315Z,1.40
2023-04-21T10:05:42.798Z,1.33
2023-04-21T10:08:12.515Z,1.42
2023-04-21T10:10:40.589Z,1.33
2023-04-21T10:13:09.004Z,1.60
2023-04-21T10:15:39.854Z,1.60
2023-04-21T10:18:15.255Z,1.55
2023-04-21T10:20:54.194Z,1.10
2023-04-21T10:23:32.555Z,1.27
2023-04-21T10:26:04.704Z,1.50
2023-04-21T10:28:48.429Z,1.20
2023-04-21T10:31:30.664Z,1.33
2023-04-21T10:34:17.421Z,1.10
2023-04-21T10:37:07.644Z,1.27
2023-04-21T10:39:36.729Z,1.10
2023-04-21T10:42:22.907Z,1.45
2023-04-21T10:45:04.043Z,1.05
2023-04-21T10:47:38.120Z,1.10
2023-04-21T10:50:13.818Z,0.90
2023-04-21T10:52:44.661Z,1.17
2023-04-21T10:55:15.671Z,1.27
2023-04-21T10:57:45.433Z,0.80
2023-04-21T11:00:16.578Z,1.10
2023-04-21T11:02:46.252Z,1.00
2023-04-21T11:05:14.371Z,0.98
2023-04-21T11:07:42.373Z,0.85
2023-04-21T11:10:11.934Z,0.80
2023-04-21T11:12:40.907Z,1.00
2023-04-21T11:15:10.136Z,0.98
2023-04-21T11:17:39.307Z,0.90
2023-04-21T11:20:10.131Z,0.80
2023-04-21T11:22:38.440Z,0.90
2023-04-21T11:25:07.575Z,0.90
2023-04-21T11:27:35.573Z,0.88
2023-04-21T11:30:05.864Z,0.70
2023-04-21T11:32:35.069Z,0.90
2023-04-21T11:35:04.823Z,0.80
2023-04-21T11:37:34.249Z,0.80
2023-04-21T11:40:03.348Z,0.80
2023-04-21T11:42:31.385Z,0.80
2023-04-21T11:44:59.482Z,0.77
2023-04-21T11:47:28.846Z,0.60
2023-04-21T11:49:57.484Z,0.70
2023-04-21T11:52:26.443Z,0.70
2023-04-21T11:54:59.982Z,0.70
2023-04-21T11:57:28.467Z,0.63
2023-04-21T11:59:59.124Z,0.80
2023-04-21T12:02:28.084Z,0.60
2023-04-21T12:05:01.257Z,0.68
2023-04-21T12:07:31.198Z,0.70
2023-04-21T12:10:01.119Z,0.70
2023-04-21T12:12:29.316Z,0.52
2023-04-21T12:14:57.344Z,0.50
2023-04-21T12:17:25.405Z,0.60
2023-04-21T12:19:53.481Z,0.70
2023-04-21T12:22:23.559Z,0.50
2023-04-21T12:24:51.530Z,0.60
2023-04-21T12:27:21.263Z,0.60
2023-04-21T12:29:49.324Z,0.45
2023-04-21T12:32:17.705Z,0.80
2023-04-21T12:34:45.900Z,0.50
2023-04-21T12:37:14.010Z,0.57
2023-04-21T12:39:42.218Z,0.43
2023-04-21T12:42:10.448Z,0.47
2023-04-21T12:44:40.230Z,0.50
2023-04-21T12:47:08.717Z,0.30
2023-04-21T12:49:36.777Z,0.50
2023-04-21T12:52:06.250Z,0.60
2023-04-21T12:54:34.562Z,0.50
2023-04-21T12:57:02.781Z,0.47
2023-04-21T12:59:31.050Z,0.40
2023-04-21T13:02:00.825Z,0.57
2023-04-21T13:04:29.394Z,0.50
2023-04-21T13:06:57.716Z,0.40
2023-04-21T13:09:25.735Z,0.40
2023-04-21T13:11:53.738Z,0.47
2023-04-21T13:14:21.675Z,0.60
2023-04-21T13:16:49.928Z,0.50
2023-04-21T13:19:19.474Z,0.80
2023-04-21T13:21:48.299Z,1.33
2023-04-21T13:24:16.412Z,2.30
2023-04-21T13:26:44.387Z,3.40
2023-04-21T13:29:12.415Z,4.22
2023-04-21T13:31:40.694Z,4.50
2023-04-21T13:34:09.242Z,4.60
2023-04-21T13:36:38.670Z,4.70
2023-04-21T13:39:09.899Z,4.22
2023-04-21T13:41:38.087Z,4.18
2023-04-21T13:44:06.394Z,3.58
2023-04-21T13:46:34.563Z,3.50
2023-04-21T13:49:02.884Z,3.20
2023-04-21T13:51:32.245Z,3.17
2023-04-21T13:54:01.808Z,3.40
2023-04-21T13:56:29.889Z,2.80
2023-04-21T13:58:59.444Z,3.20
2023-04-21T14:01:27.493Z,2.80
2023-04-21T14:03:56.924Z,2.97
2023-04-21T14:06:25.180Z,2.47
2023-04-21T14:08:53.359Z,2.70
2023-04-21T14:11:22.833Z,2.40
2023-04-21T14:14:04.860Z,2.70
2023-04-21T14:16:36.052Z,2.45
2023-04-21T14:19:04.109Z,2.78
2023-04-21T14:21:32.434Z,2.40
2023-04-21T14:24:00.440Z,2.30
2023-04-21T14:26:29.920Z,2.33
2023-04-21T14:28:59.765Z,2.17
2023-04-21T14:31:27.882Z,2.10
2023-04-21T14:33:56.077Z,1.90
2023-04-21T14:36:24.189Z,2.30
2023-04-21T14:38:52.270Z,1.90
2023-04-21T14:41:20.391Z,1.88
2023-04-21T14:43:53.839Z,1.95
2023-04-21T14:46:22.012Z,1.90
2023-04-21T14:48:50.009Z,2.00
2023-04-21T14:51:19.012Z,1.98
2023-04-21T14:53:47.329Z,2.08
2023-04-21T14:56:15.950Z,1.77
2023-04-21T14:58:43.951Z,1.60
2023-04-21T15:01:13.362Z,1.55
2023-04-21T15:03:41.690Z,1.48
2023-04-21T15:06:09.817Z,1.65
2023-04-21T15:08:37.923Z,1.33
2023-04-21T15:11:06.366Z,1.55
2023-04-21T15:13:34.347Z,1.50
2023-04-21T15:16:02.493Z,1.73
2023-04-21T15:18:31.978Z,1.30
2023-04-21T15:20:59.939Z,1.48
2023-04-21T15:23:29.217Z,1.67
2023-04-21T15:25:58.140Z,1.40
2023-04-21T15:28:26.163Z,1.20
2023-04-21T15:30:54.590Z,1.27
2023-04-21T15:33:22.657Z,1.30
2023-04-21T15:35:52.805Z,1.17
2023-04-21T15:38:21.205Z,1.25
2023-04-21T15:41:00.146Z,1.02
2023-04-21T15:43:28.911Z,1.23
2023-04-21T15:45:56.976Z,1.13
2023-04-21T15:48:25.076Z,1.10
2023-04-21T15:50:54.469Z,1.10
2023-04-21T15:53:22.530Z,0.93
2023-04-21T15:55:52.100Z,0.90
2023-04-21T15:58:22.278Z,0.98
2023-04-21T16:00:50.376Z,0.98
2023-04-21T16:03:18.574Z,0.98
2023-04-21T16:05:47.761Z,0.98
2023-04-21T16:08:17.478Z,0.98
2023-04-21T16:10:45.520Z,0.80
2023-04-21T16:13:13.597Z,1.00
2023-04-21T16:15:42.269Z,0.80
2023-04-21T16:18:10.445Z,0.93
2023-04-21T16:20:38.843Z,0.80
2023-04-21T16:23:07.022Z,0.77
2023-04-21T16:25:36.578Z,0.93
2023-04-21T16:28:06.392Z,0.70
2023-04-21T16:30:35.230Z,0.52
2023-04-21T16:33:03.451Z,0.90
2023-04-21T16:35:31.604Z,0.70
2023-04-21T16:37:59.782Z,1.00
2023-04-21T16:40:28.008Z,0.90
2023-04-21T16:43:03.288Z,0.77
2023-04-21T16:45:32.764Z,0.80
2023-04-21T16:48:00.946Z,0.60
2023-04-21T16:50:29.025Z,0.70
2023-04-21T16:52:57.002Z,0.60
2023-04-21T16:55:24.985Z,0.70
2023-04-21T16:57:53.070Z,0.70
2023-04-21T17:00:22.645Z,0.70
2023-04-21T17:02:50.788Z,0.60
2023-04-21T17:05:18.954Z,0.60
2023-04-21T17:07:48.205Z,0.60
2023-04-21T17:10:16.364Z,0.68
2023-04-21T17:12:44.380Z,0.63
2023-04-21T17:15:13.317Z,0.60
2023-04-21T17:17:43.735Z,0.65
2023-04-21T17:20:12.997Z,0.50
2023-04-21T17:22:41.439Z,0.60
2023-04-21T17:25:10.224Z,0.60
2023-04-21T17:27:38.759Z,0.52
2023-04-21T17:30:07.896Z,0.40
2023-04-21T17:32:36.055Z,0.47
2023-04-21T17:35:11.934Z,0.40
2023-04-21T17:37:42.580Z,0.55
2023-04-21T17:40:11.438Z,0.32
2023-04-21T17:42:40.448Z,0.60
2023-04-21T17:45:09.450Z,0.32
2023-04-21T17:47:37.543Z,0.50
2023-04-21T17:50:06.427Z,0.57
2023-04-21T17:52:35.909Z,0.50
2023-04-21T17:55:04.165Z,0.50
2023-04-21T17:57:32.164Z,0.50
2023-04-21T18:00:00.662Z,0.40
2023-04-21T18:02:28.832Z,0.57
2023-04-21T18:04:57.182Z,0.50
2023-04-21T18:07:25.337Z,0.40
2023-04-21T18:09:54.739Z,0.40
2023-04-21T18:12:22.742Z,0.40
2023-04-21T18:14:51.383Z,0.57
2023-04-21T18:17:19.497Z,0.43
2023-04-21T18:19:47.461Z,0.40
2023-04-21T18:22:15.398Z,0.40
2023-04-21T18:24:43.277Z,0.50
2023-04-21T18:27:13.935Z,0.40
2023-04-21T18:29:41.906Z,0.55
2023-04-21T18:32:09.937Z,0.38
2023-04-21T18:34:38.673Z,0.45
2023-04-21T18:37:06.997Z,0.40
2023-04-21T18:39:34.945Z,0.40
2023-04-21T18:42:03.026Z,0.32
2023-04-21T18:44:32.637Z,0.32
2023-04-21T18:47:00.735Z,0.40
2023-04-21T18:49:28.783Z,0.30
2023-04-21T18:51:56.854Z,0.40
2023-04-21T18:54:24.929Z,0.47
2023-04-21T18:56:53.026Z,0.40
2023-04-21T18:59:22.256Z,0.47
2023-04-21T19:01:51.783Z,0.40
2023-04-21T19:04:20.070Z,0.40
2023-04-21T19:06:48.389Z,0.40
2023-04-21T19:09:18.074Z,0.40
2023-04-21T19:11:46.049Z,0.50
2023-04-21T19:14:14.127Z,0.40
2023-04-21T19:16:42.272Z,0.50
2023-04-21T19:19:12.302Z,0.40
2023-04-21T19:21:40.497Z,0.40
2023-04-21T19:24:08.454Z,0.47
2023-04-21T19:26:36.468Z,0.52
2023-04-21T19:29:04.968Z,0.52
2023-04-21T19:31:33.038Z,0.50
2023-04-21T19:34:01.084Z,0.50
2023-04-21T19:36:31.323Z,0.50
2023-04-21T19:38:59.401Z,0.60
2023-04-21T19:41:27.399Z,0.70
2023-04-21T19:43:55.516Z,0.60
2023-04-21T19:46:23.611Z,0.60
2023-04-21T19:48:51.729Z,0.52
2023-04-21T19:51:21.782Z,0.60
2023-04-21T19:54:03.089Z,0.70
2023-04-21T19:56:36.807Z,0.60
2023-04-21T19:59:05.791Z,0.80
2023-04-21T20:01:33.851Z,0.70
2023-04-21T20:04:02.156Z,0.80
2023-04-21T20:06:30.650Z,0.60
2023-04-21T20:09:00.166Z,0.70
2023-04-21T20:11:29.316Z,1.00
2023-04-21T20:13:57.460Z,0.88
2023-04-21T20:16:26.498Z,0.80
2023-04-21T20:18:55.640Z,1.08
2023-04-21T20:21:23.807Z,1.00
2023-04-21T20:23:51.779Z,0.80
2023-04-21T20:26:21.534Z,0.88
2023-04-21T20:28:49.647Z,0.98
2023-04-21T20:31:19.093Z,1.00
2023-04-21T20:33:47.429Z,0.90
2023-04-21T20:36:15.510Z,1.10
2023-04-21T20:38:46.497Z,1.10
2023-04-21T20:41:14.672Z,1.05
2023-04-21T20:43:44.161Z,1.23
2023-04-21T20:46:16.677Z,1.10
2023-04-21T20:48:44.809Z,0.90
2023-04-21T20:51:13.517Z,0.98
2023-04-21T20:53:41.616Z,1.10
2023-04-21T20:56:09.607Z,1.02
2023-04-21T20:58:37.577Z,1.02
2023-04-21T21:01:07.084Z,1.00
2023-04-21T21:03:35.472Z,1.10
2023-04-21T21:06:03.835Z,1.20
2023-04-21T21:08:31.813Z,1.23
2023-04-21T21:10:59.738Z,1.50
2023-04-21T21:13:27.715Z,1.55
2023-04-21T21:15:55.848Z,2.50
2023-04-21T21:18:25.318Z,3.05
2023-04-21T21:20:53.331Z,3.10
2023-04-21T21:23:21.423Z,3.42
2023-04-21T21:25:49.442Z,3.72
2023-04-21T21:28:17.777Z,3.90
2023-04-21T21:30:45.753Z,4.13
2023-04-21T21:33:13.863Z,5.22
2023-04-21T21:35:43.312Z,5.00
2023-04-21T21:38:11.402Z,5.00
2023-04-21T21:40:39.420Z,5.28
2023-04-21T21:43:07.563Z,5.53
2023-04-21T21:45:35.601Z,5.75
2023-04-21T21:48:03.825Z,6.10
2023-04-21T21:50:31.897Z,5.57
2023-04-21T21:53:01.393Z,6.00
2023-04-21T21:55:29.503Z,6.43
2023-04-21T21:57:57.483Z,6.10
2023-04-21T22:00:27.090Z,6.15
2023-04-21T22:02:56.564Z,6.20
2023-04-21T22:05:24.586Z,6.63
2023-04-21T22:08:04.397Z,6.40
2023-04-21T22:10:44.765Z,6.55
2023-04-21T22:13:18.934Z,6.60
2023-04-21T22:15:49.736Z,6.03
2023-04-21T22:18:23.538Z,6.68
2023-04-21T22:20:57.232Z,6.43
2023-04-21T22:23:25.708Z,6.07
2023-04-21T22:26:03.922Z,6.38
2023-04-21T22:28:36.635Z,6.68
2023-04-21T22:31:10.423Z,5.90
2023-04-21T22:33:42.517Z,6.20
2023-04-21T22:36:14.897Z,5.82
2023-04-21T22:38:49.446Z,5.70
2023-04-21T22:43:53.543Z,5.68
2023-04-21T22:46:26.330Z,6.03
2023-04-21T22:48:58.333Z,5.50
2023-04-21T22:51:35.794Z,5.43
2023-04-21T22:54:07.069Z,5.20
2023-04-21T22:56:41.572Z,5.10
2023-04-21T22:59:16.613Z,4.95
2023-04-21T23:01:47.762Z,4.70
2023-04-21T23:04:19.995Z,4.18
2023-04-21T23:06:52.056Z,3.90
2023-04-21T23:09:23.197Z,4.60
2023-04-21T23:11:57.416Z,4.20
2023-04-21T23:14:36.122Z,4.20
2023-04-21T23:17:08.551Z,3.80
2023-04-21T23:19:39.983Z,3.92
2023-04-21T23:22:10.188Z,3.83
2023-04-21T23:24:44.292Z,3.88
2023-04-21T23:27:27.187Z,3.38
2023-04-21T23:29:58.977Z,4.03
2023-04-21T23:32:29.297Z,3.55
2023-04-21T23:35:02.774Z,3.95
2023-04-21T23:37:34.376Z,3.15
2023-04-21T23:40:02.671Z,3.47
2023-04-21T23:42:38.405Z,3.67
2023-04-21T23:45:08.303Z,3.28
2023-04-21T23:47:37.634Z,3.22
2023-04-21T23:50:11.782Z,3.25
2023-04-21T23:52:46.774Z,3.10
2023-04-21T23:55:21.015Z,3.35
2023-04-21T23:57:51.826Z,2.90
